Time;durP1;ratioP1;P1;durP2;ratioP2;P2;SDS_P1;SDS_P2;PMS_P1;PMS_P2;Temp;Humidity;BMP_temperature;BMP_pressure;BME280_temperature;BME280_humidity;BME280_pressure;Samples;Min_cycle;Max_cycle;Signal;HPM_P1;HPM_P2
2024/04/11 00:00:29;;;;;;;0.00;0.00;;;10.10;77.00;;;;;;5463622;26;20006;-95
2024/04/11 00:03:02;;;;;;;0.00;0.00;;;10.10;60.50;;;;;;5421458;26;20020;-94
2024/04/11 00:05:29;;;;;;;0.00;0.00;;;10.20;40.90;;;;;;5421839;26;20655;-95
2024/04/11 00:07:58;;;;;;;0.00;0.00;;;10.20;35.50;;;;;;5424410;26;20034;-94
2024/04/11 00:10:27;;;;;;;0.00;0.00;;;10.40;21.90;;;;;;5414249;26;20379;-96
2024/04/11 00:12:55;;;;;;;0.00;0.00;;;10.40;1.00;;;;;;5418249;26;20038;-94
2024/04/11 00:15:24;;;;;;;0.00;0.00;;;10.50;1.00;;;;;;5483556;26;20035;-96
2024/04/11 00:17:52;;;;;;;0.10;0.10;;;10.50;1.00;;;;;;5454930;26;20044;-93
2024/04/11 00:20:21;;;;;;;0.00;0.00;;;10.60;1.00;;;;;;5467461;26;20034;-95
2024/04/11 00:22:53;;;;;;;0.00;0.00;;;10.70;1.00;;;;;;5484567;26;20015;-95
2024/04/11 00:25:26;;;;;;;0.10;0.10;;;10.70;1.00;;;;;;5450341;26;20034;-94
2024/04/11 00:28:03;;;;;;;0.00;0.00;;;10.70;1.00;;;;;;5487025;26;20038;-93
2024/04/11 00:30:54;;;;;;;0.00;0.00;;;10.70;1.00;;;;;;5360074;26;20156;-94
2024/04/11 00:33:54;;;;;;;0.00;0.00;;;10.80;1.00;;;;;;5387270;26;20008;-95
2024/04/11 00:36:32;;;;;;;0.00;0.00;;;10.80;1.00;;;;;;5340336;26;20031;-95
2024/04/11 00:39:47;;;;;;;0.00;0.00;;;10.90;1.00;;;;;;5385537;26;20007;-94
2024/04/11 00:42:32;;;;;;;;;;;10.90;1.00;;;;;;5391427;26;20022;-94
2024/04/11 00:45:47;;;;;;;0.00;0.00;;;11.00;1.00;;;;;;5321493;26;19933;-94
2024/04/11 00:49:46;;;;;;;0.00;0.00;;;11.00;1.00;;;;;;5325087;26;20050;-95
2024/04/11 00:52:15;;;;;;;0.00;0.00;;;11.10;1.00;;;;;;5270796;26;20026;-96
2024/04/11 00:55:19;;;;;;;0.00;0.00;;;11.00;1.00;;;;;;5263997;27;20528;-95
2024/04/11 01:01:48;;;;;;;0.00;0.00;;;11.00;1.00;;;;;;5300761;27;20009;-95
2024/04/11 01:04:41;;;;;;;0.00;0.00;;;11.10;1.00;;;;;;5363496;26;20376;-95
2024/04/11 01:10:52;;;;;;;0.00;0.00;;;11.00;1.00;;;;;;5335868;26;20017;-95
2024/04/11 01:13:52;;;;;;;0.00;0.00;;;11.10;1.00;;;;;;5355515;26;20003;-95
2024/04/11 01:16:56;;;;;;;0.20;0.20;;;11.10;1.00;;;;;;5360202;26;20055;-95
2024/04/11 01:19:49;;;;;;;0.03;0.00;;;11.00;1.00;;;;;;5356931;26;20003;-95
2024/04/11 01:22:26;;;;;;;0.00;0.00;;;11.10;1.00;;;;;;5382737;26;20007;-95
2024/04/11 01:25:01;;;;;;;0.00;0.00;;;11.10;1.00;;;;;;5339731;26;20094;-95
2024/04/11 01:28:48;;;;;;;0.00;0.00;;;11.10;1.00;;;;;;5289752;26;20006;-95
2024/04/11 01:31:38;;;;;;;0.00;0.00;;;11.10;1.00;;;;;;5300558;26;20087;-95
2024/04/11 01:34:41;;;;;;;0.00;0.00;;;11.10;1.00;;;;;;5299853;27;20042;-96
2024/04/11 01:37:32;;;;;;;0.00;0.00;;;11.10;1.00;;;;;;5317198;26;20086;-95
2024/04/11 01:40:08;;;;;;;0.00;0.00;;;11.20;1.00;;;;;;5284975;26;20029;-95
2024/04/11 01:42:48;;;;;;;0.00;0.00;;;11.20;1.00;;;;;;5342341;26;20014;-96
2024/04/11 01:45:26;;;;;;;2.08;0.10;;;11.30;1.00;;;;;;5340152;26;20027;-94
2024/04/11 01:47:54;;;;;;;0.10;0.10;;;11.30;1.00;;;;;;5432516;26;20038;-95
2024/04/11 01:50:30;;;;;;;0.28;0.00;;;11.30;1.00;;;;;;5422814;26;20377;-95
2024/04/11 01:52:58;;;;;;;0.10;0.10;;;11.30;1.00;;;;;;5433941;26;20493;-95
2024/04/11 01:55:44;;;;;;;0.00;0.00;;;11.30;1.00;;;;;;5463985;26;20457;-95
2024/04/11 01:58:31;;;;;;;0.00;0.00;;;11.40;1.00;;;;;;5421949;26;20031;-95
2024/04/11 02:01:09;;;;;;;0.00;0.00;;;11.40;1.00;;;;;;5484967;26;20030;-95
2024/04/11 02:03:46;;;;;;;0.00;0.00;;;11.50;1.00;;;;;;5426891;26;20105;-94
2024/04/11 02:06:13;;;;;;;0.00;0.00;;;11.60;1.00;;;;;;5425549;26;20498;-94
2024/04/11 02:09:00;;;;;;;0.08;0.08;;;11.70;1.00;;;;;;5460761;26;20002;-94
2024/04/11 02:12:00;;;;;;;0.00;0.00;;;11.70;1.00;;;;;;5484678;26;20013;-95
2024/04/11 02:14:32;;;;;;;0.00;0.00;;;11.70;1.00;;;;;;5453392;26;20502;-93
2024/04/11 02:17:23;;;;;;;0.10;0.10;;;11.80;1.00;;;;;;5425432;26;20026;-95
2024/04/11 02:19:54;;;;;;;0.00;0.00;;;11.80;1.00;;;;;;5487341;26;20034;-95
2024/04/11 02:22:40;;;;;;;0.00;0.00;;;11.80;99.90;;;;;;5457860;26;20016;-95
2024/04/11 02:25:21;;;;;;;0.00;0.00;;;11.80;99.90;;;;;;5487379;26;20006;-95
2024/04/11 02:28:03;;;;;;;0.00;0.00;;;11.80;99.90;;;;;;5451132;26;20019;-96
2024/04/11 02:30:39;;;;;;;0.03;0.00;;;11.80;99.90;;;;;;5449079;26;20467;-94
2024/04/11 02:33:25;;;;;;;0.00;0.00;;;11.80;99.90;;;;;;5448512;26;20494;-96
2024/04/11 02:36:29;;;;;;;0.00;0.00;;;11.80;99.90;;;;;;5445050;26;20079;-95
2024/04/11 02:39:12;;;;;;;0.00;0.00;;;11.90;99.90;;;;;;5454927;26;20030;-93
2024/04/11 02:42:00;;;;;;;0.00;0.00;;;11.90;99.90;;;;;;5476403;26;20468;-95
2024/04/11 02:44:27;;;;;;;0.08;0.00;;;11.90;99.90;;;;;;5470551;26;20034;-94
2024/04/11 02:46:56;;;;;;;0.00;0.00;;;11.90;99.90;;;;;;5419054;26;20035;-95
2024/04/11 02:49:25;;;;;;;0.10;0.00;;;11.90;99.90;;;;;;5402165;26;20733;-96
2024/04/11 02:51:59;;;;;;;0.00;0.00;;;11.90;99.90;;;;;;5472456;26;20346;-95
2024/04/11 02:54:41;;;;;;;0.00;0.00;;;11.90;1.00;;;;;;5454993;26;20042;-96
2024/04/11 02:57:12;;;;;;;0.00;0.00;;;11.80;99.90;;;;;;5470199;26;20030;-95
2024/04/11 03:00:01;;;;;;;0.00;0.00;;;11.80;99.90;;;;;;5485767;26;20006;-95
2024/04/11 03:02:50;;;;;;;0.08;0.08;;;11.90;99.90;;;;;;5436605;26;20037;-93
2024/04/11 03:05:25;;;;;;;0.00;0.00;;;11.80;99.90;;;;;;5431419;26;20030;-94
2024/04/11 03:07:57;;;;;;;0.00;0.00;;;11.80;1.00;;;;;;5440597;26;20046;-94
2024/04/11 03:11:11;;;;;;;0.00;0.00;;;11.80;1.00;;;;;;5479572;26;20466;-95
2024/04/11 03:14:09;;;;;;;0.03;0.03;;;11.80;1.00;;;;;;5483917;26;20049;-95
2024/04/11 03:16:52;;;;;;;0.00;0.00;;;11.80;1.00;;;;;;5485457;26;20049;-94
2024/04/11 03:19:21;;;;;;;0.00;0.00;;;11.80;1.00;;;;;;5451666;26;20054;-94
2024/04/11 03:22:07;;;;;;;0.00;0.00;;;11.80;1.00;;;;;;5446121;26;20007;-94
2024/04/11 03:24:49;;;;;;;0.13;0.13;;;11.70;1.00;;;;;;5385877;26;20031;-95
2024/04/11 03:27:17;;;;;;;0.00;0.00;;;11.70;1.00;;;;;;5386868;26;20031;-93
2024/04/11 03:29:45;;;;;;;0.30;0.05;;;11.70;1.00;;;;;;5351432;26;20495;-94
2024/04/11 03:32:29;;;;;;;0.15;0.05;;;11.70;1.00;;;;;;5405544;26;20032;-93
2024/04/11 03:35:10;;;;;;;0.00;0.00;;;11.60;1.00;;;;;;5405627;26;20087;-94
2024/04/11 03:37:57;;;;;;;0.00;0.00;;;11.70;1.00;;;;;;5420227;26;20007;-94
2024/04/11 03:40:55;;;;;;;0.00;0.00;;;11.70;1.00;;;;;;5424790;26;20493;-93
2024/04/11 03:43:54;;;;;;;0.00;0.00;;;11.70;1.00;;;;;;5449869;26;20154;-93
2024/04/11 03:47:01;;;;;;;0.00;0.00;;;11.60;1.00;;;;;;5441450;26;20002;-93
2024/04/11 03:50:06;;;;;;;0.00;0.00;;;11.60;1.00;;;;;;5474394;26;20076;-94
2024/04/11 03:52:38;;;;;;;0.20;0.00;;;11.60;1.00;;;;;;5450192;26;20046;-95
2024/04/11 03:55:23;;;;;;;0.00;0.00;;;11.60;1.00;;;;;;5449742;26;20039;-94
2024/04/11 03:58:00;;;;;;;0.00;0.00;;;11.60;2.80;;;;;;5394678;26;20029;-94
2024/04/11 04:00:57;;;;;;;0.20;0.20;;;11.60;2.60;;;;;;5435164;26;20006;-93
2024/04/11 04:03:56;;;;;;;0.00;0.00;;;11.60;16.30;;;;;;5452512;26;20034;-93
2024/04/11 04:06:42;;;;;;;0.00;0.00;;;11.60;33.30;;;;;;5459354;26;20002;-94
2024/04/11 04:09:21;;;;;;;0.00;0.00;;;11.60;62.00;;;;;;5432345;26;20007;-94
2024/04/11 04:12:16;;;;;;;0.00;0.00;;;11.60;94.00;;;;;;5431760;26;20462;-93
2024/04/11 04:14:45;;;;;;;0.00;0.00;;;11.60;99.90;;;;;;5484338;26;20042;-94
2024/04/11 04:17:40;;;;;;;0.00;0.00;;;11.60;99.90;;;;;;5449802;26;20038;-93
2024/04/11 04:20:56;;;;;;;0.00;0.00;;;11.60;99.90;;;;;;5389871;26;20008;-94
2024/04/11 04:24:08;;;;;;;0.00;0.00;;;11.60;99.90;;;;;;5406806;26;20698;-94
2024/04/11 04:26:55;;;;;;;0.30;0.10;;;11.60;99.90;;;;;;5432400;26;20375;-94
2024/04/11 04:30:00;;;;;;;0.00;0.00;;;11.60;99.90;;;;;;5427342;26;20011;-94
2024/04/11 04:32:58;;;;;;;0.00;0.00;;;11.60;99.90;;;;;;5449136;26;20015;-94
2024/04/11 04:35:33;;;;;;;0.10;0.10;;;11.50;99.90;;;;;;5465816;26;20030;-95
2024/04/11 04:38:18;;;;;;;0.00;0.00;;;11.50;99.90;;;;;;5450311;26;20019;-95
2024/04/11 04:41:16;;;;;;;0.08;0.03;;;11.40;99.90;;;;;;5449495;26;20038;-95
2024/04/11 04:44:16;;;;;;;0.22;0.00;;;11.40;99.90;;;;;;5430170;26;20435;-95
2024/04/11 04:47:15;;;;;;;0.00;0.00;;;11.40;99.90;;;;;;5454641;26;20013;-95
2024/04/11 04:49:53;;;;;;;0.00;0.00;;;11.30;99.90;;;;;;5443076;26;20030;-93
2024/04/11 04:52:24;;;;;;;0.00;0.00;;;11.30;99.90;;;;;;5402284;26;20027;-95
2024/04/11 04:54:52;;;;;;;0.00;0.00;;;11.30;99.90;;;;;;5426094;26;20136;-94
2024/04/11 04:57:19;;;;;;;0.00;0.00;;;11.20;99.90;;;;;;5443584;26;20023;-95
2024/04/11 04:59:49;;;;;;;0.00;0.00;;;11.20;99.90;;;;;;5413953;26;20046;-95
2024/04/11 05:02:18;;;;;;;0.00;0.00;;;11.20;99.90;;;;;;5424501;26;20029;-94
2024/04/11 05:04:49;;;;;;;0.00;0.00;;;11.10;99.90;;;;;;5455147;26;20003;-95
2024/04/11 05:07:17;;;;;;;0.00;0.00;;;11.00;99.90;;;;;;5443226;26;20064;-93
2024/04/11 05:09:46;;;;;;;0.00;0.00;;;11.00;99.90;;;;;;5417390;26;20498;-95
2024/04/11 05:12:13;;;;;;;0.00;0.00;;;11.00;1.00;;;;;;5409285;26;20043;-93
2024/04/11 05:14:45;;;;;;;0.10;0.10;;;10.90;1.00;;;;;;5416714;26;20046;-92
2024/04/11 05:17:13;;;;;;;0.00;0.00;;;10.90;1.00;;;;;;5421910;26;20020;-93
2024/04/11 05:19:41;;;;;;;0.00;0.00;;;10.90;99.30;;;;;;5385008;26;20030;-93
2024/04/11 05:22:09;;;;;;;0.00;0.00;;;10.90;99.90;;;;;;5476220;26;20611;-94
2024/04/11 05:24:35;;;;;;;0.00;0.00;;;10.90;99.90;;;;;;5449437;26;20005;-92
2024/04/11 05:27:03;;;;;;;0.00;0.00;;;10.90;91.90;;;;;;5440762;26;20009;-93
2024/04/11 05:29:30;;;;;;;0.00;0.00;;;10.90;1.00;;;;;;5479190;26;20029;-96
2024/04/11 05:31:57;;;;;;;0.00;0.00;;;10.80;1.00;;;;;;5447501;26;20008;-94
2024/04/11 05:34:26;;;;;;;0.00;0.00;;;10.90;1.00;;;;;;5414074;26;20003;-94
2024/04/11 05:36:54;;;;;;;0.00;0.00;;;10.80;1.00;;;;;;5445567;26;20007;-94
2024/04/11 05:39:22;;;;;;;0.00;0.00;;;10.90;1.00;;;;;;5413883;26;20349;-94
2024/04/11 05:41:49;;;;;;;0.00;0.00;;;10.90;1.00;;;;;;5449169;26;20408;-95
2024/04/11 05:44:16;;;;;;;0.25;0.00;;;10.90;51.40;;;;;;5436681;26;20031;-96
2024/04/11 05:46:46;;;;;;;0.82;0.03;;;10.90;99.90;;;;;;5478365;26;20026;-95
2024/04/11 05:49:13;;;;;;;0.00;0.00;;;10.90;99.90;;;;;;5441018;26;20039;-96
2024/04/11 05:51:41;;;;;;;0.00;0.00;;;10.90;1.00;;;;;;5446818;26;20018;-94
2024/04/11 05:54:09;;;;;;;0.15;0.08;;;10.90;1.00;;;;;;5451523;26;20034;-93
2024/04/11 05:56:37;;;;;;;0.00;0.00;;;10.90;1.00;;;;;;5484588;26;20443;-93
2024/04/11 05:59:05;;;;;;;0.35;0.20;;;10.90;1.00;;;;;;5421827;26;20045;-92
2024/04/11 06:01:35;;;;;;;0.00;0.00;;;10.90;1.00;;;;;;5420454;26;20035;-94
2024/04/11 06:04:05;;;;;;;0.00;0.00;;;10.90;17.00;;;;;;5483589;26;20016;-94
2024/04/11 06:06:32;;;;;;;0.10;0.10;;;10.90;99.90;;;;;;5454468;26;20029;-96
2024/04/11 06:09:00;;;;;;;0.00;0.00;;;10.80;99.90;;;;;;5422579;26;20124;-94
2024/04/11 06:11:27;;;;;;;0.00;0.00;;;10.90;1.00;;;;;;5460453;26;20030;-94
2024/04/11 06:13:55;;;;;;;0.05;0.05;;;10.90;1.00;;;;;;5433680;26;20065;-93
2024/04/11 06:16:24;;;;;;;0.00;0.00;;;10.80;1.00;;;;;;5453743;26;20038;-94
2024/04/11 06:18:54;;;;;;;0.00;0.00;;;10.90;1.00;;;;;;5481717;26;20033;-95
2024/04/11 06:21:31;;;;;;;0.00;0.00;;;10.90;1.00;;;;;;5424388;26;20045;-95
2024/04/11 06:23:59;;;;;;;0.00;0.00;;;10.90;1.00;;;;;;5482584;26;20362;-93
2024/04/11 06:26:26;;;;;;;0.00;0.00;;;10.90;22.20;;;;;;5480871;26;20038;-93
2024/04/11 06:28:53;;;;;;;0.00;0.00;;;10.90;99.90;;;;;;5387694;26;20745;-93
2024/04/11 06:31:28;;;;;;;0.00;0.00;;;10.90;99.90;;;;;;5444075;26;20031;-93
2024/04/11 06:33:55;;;;;;;0.00;0.00;;;10.90;99.90;;;;;;5425403;26;20024;-93
2024/04/11 06:36:22;;;;;;;0.00;0.00;;;10.90;99.90;;;;;;5451191;26;20034;-94
2024/04/11 06:38:51;;;;;;;0.00;0.00;;;11.00;99.90;;;;;;5422346;26;20042;-93
2024/04/11 06:41:24;;;;;;;0.00;0.00;;;11.00;99.90;;;;;;5467212;26;20585;-95
2024/04/11 06:43:51;;;;;;;0.00;0.00;;;11.00;99.90;;;;;;5472661;26;20036;-93
2024/04/11 06:46:19;;;;;;;0.00;0.00;;;11.10;99.90;;;;;;5406357;26;20031;-95
2024/04/11 06:48:46;;;;;;;0.00;0.00;;;11.10;99.90;;;;;;5431750;26;20369;-92
2024/04/11 06:51:15;;;;;;;0.00;0.00;;;11.10;99.90;;;;;;5449364;26;20029;-94
2024/04/11 06:53:43;;;;;;;0.00;0.00;;;11.10;99.90;;;;;;5480722;26;20045;-94
2024/04/11 06:56:11;;;;;;;0.22;0.00;;;11.20;99.90;;;;;;5452328;26;20034;-93
2024/04/11 06:58:38;;;;;;;0.00;0.00;;;11.20;99.90;;;;;;5478652;26;20054;-95
2024/04/11 07:01:09;;;;;;;0.10;0.00;;;11.20;99.90;;;;;;5450821;26;20073;-94
2024/04/11 07:03:40;;;;;;;0.00;0.00;;;11.30;99.90;;;;;;5437596;26;19998;-94
2024/04/11 07:06:10;;;;;;;0.00;0.00;;;11.30;99.90;;;;;;5412751;26;20042;-95
2024/04/11 07:08:38;;;;;;;0.00;0.00;;;11.30;99.90;;;;;;5433219;26;20032;-94
2024/04/11 07:11:18;;;;;;;0.00;0.00;;;11.40;99.90;;;;;;5456261;26;20038;-94
2024/04/11 07:13:50;;;;;;;0.00;0.00;;;11.40;99.90;;;;;;5484913;26;20811;-93
2024/04/11 07:16:20;;;;;;;0.10;0.10;;;11.40;99.90;;;;;;5483126;26;20482;-95
2024/04/11 07:18:54;;;;;;;0.00;0.00;;;11.40;99.90;;;;;;5474668;26;20033;-94
2024/04/11 07:21:25;;;;;;;0.00;0.00;;;11.50;99.90;;;;;;5478479;26;20030;-95
2024/04/11 07:23:55;;;;;;;0.00;0.00;;;11.50;99.90;;;;;;5403830;26;20003;-94
2024/04/11 07:26:24;;;;;;;0.43;0.00;;;11.50;99.90;;;;;;5439441;26;20042;-95
2024/04/11 07:28:51;;;;;;;0.00;0.00;;;11.50;1.00;;;;;;5450132;26;20031;-93
2024/04/11 07:31:19;;;;;;;0.00;0.00;;;11.50;1.00;;;;;;5471198;26;20026;-94
2024/04/11 07:33:48;;;;;;;0.93;0.10;;;11.50;1.00;;;;;;5421163;26;20035;-95
2024/04/11 07:36:22;;;;;;;0.13;0.00;;;11.50;1.00;;;;;;5485414;26;20046;-94
2024/04/11 07:38:51;;;;;;;0.15;0.10;;;11.60;1.00;;;;;;5485900;26;20034;-95
2024/04/11 07:41:20;;;;;;;0.05;0.05;;;11.50;1.00;;;;;;5445093;26;20050;-95
2024/04/11 07:43:51;;;;;;;0.00;0.00;;;11.60;1.00;;;;;;5454950;26;20022;-92
2024/04/11 07:46:19;;;;;;;0.00;0.00;;;11.60;1.00;;;;;;5477294;26;20038;-95
2024/04/11 07:48:47;;;;;;;0.00;0.00;;;11.60;1.00;;;;;;5429180;26;20030;-95
2024/04/11 07:51:19;;;;;;;0.00;0.00;;;11.60;1.00;;;;;;5430810;26;20022;-94
2024/04/11 07:57:19;;;;;;;0.10;0.10;;;11.70;1.00;;;;;;5449379;26;20503;-95
2024/04/11 07:59:46;;;;;;;0.10;0.10;;;11.70;4.50;;;;;;5381044;26;20034;-95
2024/04/11 08:02:15;;;;;;;1.88;0.15;;;11.80;1.00;;;;;;5423062;26;20382;-94
2024/04/11 08:04:42;;;;;;;0.32;0.10;;;11.80;1.00;;;;;;5393947;26;20039;-94
2024/04/11 08:07:18;;;;;;;0.10;0.10;;;11.80;1.00;;;;;;5387751;26;20191;-95
2024/04/11 08:09:55;;;;;;;0.63;0.10;;;11.80;1.00;;;;;;5360915;26;20028;-95
2024/04/11 08:12:27;;;;;;;0.00;0.00;;;11.90;10.10;;;;;;5359283;26;20074;-95
2024/04/11 08:15:06;;;;;;;0.00;0.00;;;11.90;20.60;;;;;;5386193;26;20024;-94
2024/04/11 08:17:37;;;;;;;0.03;0.00;;;12.00;9.20;;;;;;5387404;26;20023;-96
2024/04/11 08:20:24;;;;;;;0.32;0.20;;;12.00;3.90;;;;;;5320225;26;20007;-94
2024/04/11 08:22:52;;;;;;;0.20;0.20;;;12.10;18.10;;;;;;5415383;26;20483;-96
2024/04/11 08:25:19;;;;;;;0.10;0.10;;;12.10;25.80;;;;;;5389616;26;20023;-96
2024/04/11 08:28:11;;;;;;;0.00;0.00;;;12.20;17.90;;;;;;5413779;26;20036;-94
2024/04/11 08:30:41;;;;;;;0.10;0.10;;;12.20;41.10;;;;;;5442857;26;20034;-95
2024/04/11 08:33:09;;;;;;;0.00;0.00;;;12.30;43.90;;;;;;5464392;26;20034;-94
2024/04/11 08:35:44;;;;;;;0.10;0.10;;;12.40;13.70;;;;;;5427517;26;20039;-92
2024/04/11 08:38:34;;;;;;;0.20;0.13;;;12.50;8.50;;;;;;5429160;26;20026;-93
2024/04/11 08:41:09;;;;;;;0.20;0.20;;;12.60;38.60;;;;;;5443534;26;20045;-95
2024/04/11 08:43:40;;;;;;;0.35;0.20;;;12.70;3.10;;;;;;5431538;26;20035;-94
2024/04/11 08:46:09;;;;;;;0.08;0.08;;;12.70;1.00;;;;;;5441386;26;20031;-95
2024/04/11 08:48:37;;;;;;;0.10;0.10;;;12.80;1.00;;;;;;5485596;26;20038;-93
2024/04/11 08:51:42;;;;;;;0.10;0.10;;;12.80;1.00;;;;;;5487207;26;20034;-95
2024/04/11 08:54:10;;;;;;;0.22;0.22;;;12.90;1.00;;;;;;5452196;26;20031;-93
2024/04/11 08:56:37;;;;;;;0.20;0.20;;;12.90;1.00;;;;;;5421108;26;20043;-94
2024/04/11 08:59:23;;;;;;;0.40;0.30;;;12.90;99.90;;;;;;5451774;26;20010;-95
2024/04/11 09:06:39;;;;;;;0.10;0.10;;;13.10;1.00;;;;;;5392875;26;20113;-96
2024/04/11 09:09:41;;;;;;;0.05;0.05;;;13.30;1.00;;;;;;5487392;26;20510;-96
2024/04/11 09:12:47;;;;;;;0.10;0.10;;;13.30;99.90;;;;;;5497053;26;20005;-95
2024/04/11 09:15:19;;;;;;;0.20;0.20;;;13.30;99.90;;;;;;5490032;26;20046;-96
2024/04/11 09:19:22;;;;;;;0.73;0.20;;;13.30;99.90;;;;;;5450731;26;20104;-96
2024/04/11 09:25:34;;;;;;;0.00;0.00;;;13.40;99.90;;;;;;5440555;26;20034;-96
2024/04/11 09:28:45;;;;;;;0.10;0.10;;;13.50;99.90;;;;;;5458323;26;20034;-96
2024/04/11 09:31:39;;;;;;;0.05;0.05;;;13.50;99.90;;;;;;5447440;26;20094;-95
2024/04/11 09:34:30;;;;;;;0.13;0.13;;;13.60;99.90;;;;;;5469488;26;20484;-95
2024/04/11 09:37:24;;;;;;;0.10;0.10;;;13.70;99.90;;;;;;5445898;21;20026;-62
2024/04/11 09:39:56;;;;;;;0.00;0.00;;;13.90;99.90;;;;;;5397654;26;19999;-61
2024/04/11 09:42:27;;;;;;;0.20;0.20;;;14.00;99.90;;;;;;5397933;26;20007;-61
2024/04/11 09:44:55;;;;;;;0.00;0.00;;;14.20;99.90;;;;;;5385305;26;20480;-62
2024/04/11 09:47:26;;;;;;;0.10;0.10;;;14.30;99.90;;;;;;5390272;26;20019;-61
2024/04/11 09:49:59;;;;;;;1.85;0.35;;;14.40;99.90;;;;;;5388243;26;19999;-61
2024/04/11 09:52:37;;;;;;;0.05;0.05;;;14.40;99.90;;;;;;5390511;26;20007;-62
2024/04/11 09:55:07;;;;;;;0.10;0.10;;;14.50;99.90;;;;;;5401543;26;19999;-62
2024/04/11 09:57:38;;;;;;;0.20;0.20;;;14.50;99.90;;;;;;5400453;26;20008;-61
2024/04/11 10:00:10;;;;;;;0.20;0.20;;;14.50;99.90;;;;;;5393488;26;20009;-62
2024/04/11 10:02:38;;;;;;;0.15;0.15;;;14.50;99.90;;;;;;5399010;26;20341;-62
2024/04/11 10:05:07;;;;;;;0.25;0.25;;;14.40;99.90;;;;;;5401776;26;20523;-61
2024/04/11 10:07:41;;;;;;;0.77;0.32;;;14.30;99.90;;;;;;5399639;26;20018;-63
2024/04/11 10:10:25;;;;;;;0.10;0.10;;;14.20;99.90;;;;;;5387740;26;20013;-62
2024/04/11 10:12:52;;;;;;;0.10;0.10;;;14.30;99.90;;;;;;5401170;26;20007;-62
2024/04/11 10:15:21;;;;;;;0.10;0.10;;;14.30;99.90;;;;;;5401901;26;20000;-62
2024/04/11 10:18:10;;;;;;;0.10;0.10;;;14.30;99.90;;;;;;5401727;26;20012;-62
2024/04/11 10:21:01;;;;;;;0.05;0.05;;;14.30;99.90;;;;;;5398317;26;20269;-62
2024/04/11 10:23:29;;;;;;;0.20;0.20;;;14.40;99.90;;;;;;5400189;26;20017;-62
2024/04/11 10:25:56;;;;;;;0.10;0.10;;;14.40;99.90;;;;;;5402044;26;20050;-62
2024/04/11 10:28:56;;;;;;;0.10;0.10;;;14.40;99.90;;;;;;5398544;26;20021;-62
2024/04/11 10:31:25;;;;;;;0.28;0.28;;;14.40;99.90;;;;;;5376333;26;20034;-62
2024/04/11 10:34:10;;;;;;;0.03;0.03;;;14.40;99.90;;;;;;5392930;26;20003;-62
2024/04/11 10:36:42;;;;;;;0.20;0.20;;;14.60;99.90;;;;;;5401755;26;20029;-62
2024/04/11 10:39:15;;;;;;;0.20;0.20;;;14.60;99.90;;;;;;5391774;26;20035;-62
2024/04/11 10:41:45;;;;;;;0.90;0.10;;;14.70;99.90;;;;;;5398016;26;20063;-62
2024/04/11 10:44:12;;;;;;;0.00;0.00;;;14.80;99.90;;;;;;5399359;26;20807;-62
2024/04/11 10:46:40;;;;;;;0.20;0.20;;;14.80;99.90;;;;;;5400927;26;20008;-62
2024/04/11 10:49:15;;;;;;;0.20;0.20;;;14.80;99.90;;;;;;5400272;26;20459;-62
2024/04/11 10:51:43;;;;;;;0.00;0.00;;;14.80;99.90;;;;;;5395762;26;20094;-63
2024/04/11 10:54:10;;;;;;;0.05;0.05;;;14.80;99.90;;;;;;5401112;26;20014;-62
2024/04/11 10:56:44;;;;;;;0.20;0.20;;;14.70;99.90;;;;;;5399117;26;20019;-62
2024/04/11 10:59:26;;;;;;;0.03;0.03;;;14.60;99.90;;;;;;5376549;26;19996;-62
2024/04/11 11:02:00;;;;;;;0.10;0.10;;;14.60;99.90;;;;;;5376552;26;20039;-62
2024/04/11 11:04:32;;;;;;;0.08;0.08;;;14.50;99.90;;;;;;5401025;26;20043;-62
2024/04/11 11:07:12;;;;;;;0.20;0.20;;;14.50;99.90;;;;;;5389509;26;20004;-62
2024/04/11 11:09:45;;;;;;;0.17;0.17;;;14.40;99.90;;;;;;5399154;26;20504;-62
2024/04/11 11:12:15;;;;;;;0.20;0.20;;;14.40;99.90;;;;;;5390247;26;20004;-62
2024/04/11 11:14:42;;;;;;;;;;;14.40;1.00;;;;;;5389543;26;20014;-62
2024/04/11 11:17:17;;;;;;;0.20;0.20;;;14.50;1.00;;;;;;5377681;26;19925;-62
2024/04/11 11:19:50;;;;;;;0.00;0.00;;;14.50;1.00;;;;;;5393109;26;20446;-63
2024/04/11 11:22:33;;;;;;;0.10;0.10;;;14.50;1.00;;;;;;5399732;26;20003;-62
2024/04/11 11:25:00;;;;;;;0.10;0.10;;;14.60;1.00;;;;;;5370564;26;20083;-63
2024/04/11 11:27:29;;;;;;;0.10;0.10;;;14.60;1.00;;;;;;5395680;26;20018;-63
2024/04/11 11:29:56;;;;;;;0.10;0.10;;;14.70;1.00;;;;;;5395397;26;19999;-63
2024/04/11 11:32:25;;;;;;;0.10;0.10;;;14.80;1.00;;;;;;5396891;26;20970;-63
2024/04/11 11:34:53;;;;;;;0.10;0.10;;;14.80;1.00;;;;;;5384552;26;20007;-63
2024/04/11 11:37:23;;;;;;;0.10;0.10;;;14.80;1.00;;;;;;5386251;26;20342;-63
2024/04/11 11:39:55;;;;;;;0.10;0.10;;;14.80;99.90;;;;;;5396637;26;20337;-62
2024/04/11 11:42:32;;;;;;;0.10;0.10;;;14.90;99.90;;;;;;5380057;26;20341;-61
2024/04/11 11:47:34;;;;;;;0.90;0.20;;;14.80;99.90;;;;;;5377210;26;20395;-62
2024/04/11 11:50:18;;;;;;;0.05;0.05;;;14.80;99.90;;;;;;5385951;26;19996;-62
2024/04/11 11:52:49;;;;;;;0.10;0.10;;;14.80;99.90;;;;;;5393278;26;20421;-62
2024/04/11 11:55:17;;;;;;;0.13;0.13;;;14.80;99.90;;;;;;5392872;26;20018;-62
2024/04/11 11:57:54;;;;;;;0.10;0.10;;;14.70;99.90;;;;;;5387633;26;20007;-61
2024/04/11 12:00:23;;;;;;;0.08;0.08;;;14.70;1.00;;;;;;5377358;26;20509;-62
2024/04/11 12:02:56;;;;;;;0.15;0.15;;;14.60;1.00;;;;;;5383001;26;20018;-62
2024/04/11 12:05:27;;;;;;;0.00;0.00;;;14.60;1.00;;;;;;5388349;26;20010;-62
2024/04/11 12:07:57;;;;;;;0.10;0.10;;;14.50;1.00;;;;;;5381472;26;20007;-62
2024/04/11 12:16:04;;;;;;;0.20;0.20;;;14.40;28.50;;;;;;5403474;26;20000;-62
2024/04/11 12:18:31;;;;;;;2.47;0.20;;;14.30;99.90;;;;;;5402123;26;20377;-62
2024/04/11 12:20:58;;;;;;;0.15;0.15;;;14.30;99.90;;;;;;5404852;26;20344;-62
2024/04/11 12:23:29;;;;;;;0.10;0.10;;;14.30;99.90;;;;;;5400282;26;20007;-62
2024/04/11 12:25:57;;;;;;;0.20;0.20;;;14.30;99.90;;;;;;5405798;26;19999;-62
2024/04/11 12:28:25;;;;;;;0.10;0.10;;;14.30;99.90;;;;;;5391261;26;20022;-62
2024/04/11 12:30:59;;;;;;;0.20;0.20;;;14.30;99.90;;;;;;5404552;26;19999;-62
2024/04/11 12:33:27;;;;;;;0.20;0.20;;;14.30;99.90;;;;;;5401597;26;20007;-62
2024/04/11 12:35:59;;;;;;;0.10;0.10;;;14.30;99.90;;;;;;5404571;26;20349;-62
2024/04/11 12:38:32;;;;;;;0.10;0.10;;;14.30;99.90;;;;;;5402662;26;20007;-62
2024/04/11 12:41:01;;;;;;;0.10;0.10;;;14.30;99.90;;;;;;5402595;26;20451;-62
2024/04/11 12:43:28;;;;;;;0.15;0.15;;;14.30;99.90;;;;;;5400810;26;20254;-62
2024/04/11 12:45:58;;;;;;;0.10;0.10;;;14.30;99.90;;;;;;5388002;26;20415;-62
2024/04/11 12:48:25;;;;;;;;;;;14.30;99.90;;;;;;5401909;26;20007;-62
2024/04/11 12:50:59;;;;;;;0.20;0.20;;;14.30;99.90;;;;;;5402937;26;19925;-62
2024/04/11 12:53:28;;;;;;;0.03;0.03;;;14.40;99.90;;;;;;5402313;26;20008;-62
2024/04/11 12:55:58;;;;;;;0.20;0.20;;;14.40;99.90;;;;;;5403751;26;19999;-62
2024/04/11 12:58:26;;;;;;;;;;;14.40;99.90;;;;;;5401702;26;20686;-63
2024/04/11 13:01:08;;;;;;;0.30;0.30;;;14.50;99.90;;;;;;5403344;26;20466;-62
2024/04/11 13:09:18;;;;;;;0.20;0.20;;;14.90;99.90;;;;;;5380383;26;20469;-62
2024/04/11 13:11:49;;;;;;;0.00;0.00;;;15.10;99.90;;;;;;5398581;26;20632;-62
2024/04/11 13:14:18;;;;;;;0.15;0.15;;;15.30;99.90;;;;;;5396208;26;20007;-63
2024/04/11 13:17:00;;;;;;;0.30;0.30;;;15.40;99.90;;;;;;5402457;26;19999;-63
2024/04/11 13:19:34;;;;;;;0.20;0.20;;;15.50;99.90;;;;;;5399228;26;20018;-62
2024/04/11 13:22:05;;;;;;;0.20;0.20;;;15.60;99.90;;;;;;5402821;26;20014;-65
2024/04/11 13:27:38;;;;;;;0.20;0.10;;;15.70;99.90;;;;;;5293549;27;20605;-61
2024/04/11 13:30:13;;;;;;;0.17;0.17;;;15.70;99.90;;;;;;5381178;26;20000;-61
2024/04/11 13:32:55;;;;;;;0.15;0.15;;;15.70;99.90;;;;;;5388784;26;20007;-61
2024/04/11 13:35:37;;;;;;;0.22;0.22;;;15.60;99.90;;;;;;5396337;26;20471;-61
2024/04/11 13:38:16;;;;;;;0.10;0.10;;;15.60;99.90;;;;;;5388469;26;20117;-62
2024/04/11 13:43:37;;;;;;;0.10;0.10;;;15.40;99.90;;;;;;5401109;26;20004;-62
2024/04/11 13:46:07;;;;;;;0.10;0.10;;;15.30;99.90;;;;;;5400558;26;19995;-61
2024/04/11 13:48:52;;;;;;;0.13;0.13;;;15.30;99.90;;;;;;5400183;26;20327;-61
2024/04/11 13:51:29;;;;;;;0.10;0.10;;;15.30;99.90;;;;;;5402191;26;20059;-62
2024/04/11 13:54:07;;;;;;;0.20;0.20;;;15.20;99.90;;;;;;5395030;26;20008;-62
2024/04/11 13:56:38;;;;;;;0.20;0.20;;;15.20;99.90;;;;;;5402830;26;20478;-62
2024/04/11 13:59:08;;;;;;;0.30;0.30;;;15.10;99.90;;;;;;5384970;26;20570;-62
2024/04/11 14:01:50;;;;;;;0.35;0.35;;;15.10;99.90;;;;;;5388891;26;20010;-61
2024/04/11 14:04:17;;;;;;;0.10;0.10;;;15.10;99.90;;;;;;5396501;26;20004;-62
2024/04/11 14:09:19;;;;;;;0.10;0.10;;;15.00;99.90;;;;;;5399568;26;20012;-62
2024/04/11 14:11:47;;;;;;;0.03;0.03;;;14.90;99.90;;;;;;5401993;26;19999;-62
2024/04/11 14:14:20;;;;;;;0.15;0.15;;;14.90;99.90;;;;;;5400989;26;20007;-62
2024/04/11 14:16:55;;;;;;;0.10;0.10;;;14.90;99.90;;;;;;5380829;26;19999;-62
2024/04/11 14:19:36;;;;;;;0.63;0.17;;;14.90;99.90;;;;;;5401374;26;20007;-62
2024/04/11 14:22:08;;;;;;;0.17;0.17;;;14.90;99.90;;;;;;5402224;26;20011;-62
2024/04/11 14:24:39;;;;;;;0.17;0.17;;;14.90;99.90;;;;;;5399041;26;20592;-62